| Date | Time | Temp. (oF) | Dew Point (oF) | Rel. Hum. (%) | Press. (in.) | Wind Dir. | Wind Speed (mph) | Hourly Rainfall (in.) |
|
|---|---|---|---|---|---|---|---|---|---|
| 1 | 06/17 | 00:00 | 71 | 62 | 75 | 29.92 | WNW | 0 | 0.00 |
| 2 | 06/16 | 23:00 | 73 | 61 | 68 | 29.92 | WSW | 0 | 0.00 |
| 3 | 06/16 | 22:00 | 76 | 61 | 62 | 29.90 | N | 0 | 0.00 |
| 4 | 06/16 | 21:00 | 79 | 63 | 59 | 29.88 | N | 4 | 0.00 |
| 5 | 06/16 | 20:00 | 80 | 63 | 58 | 29.84 | NE | 6 | 0.00 |
| 6 | 06/16 | 19:00 | 85 | 64 | 51 | 29.79 | W | 1 | 0.00 |
| 7 | 06/16 | 18:00 | 86 | 66 | 52 | 29.78 | W | 6 | 0.00 |
| 8 | 06/16 | 17:00 | 87 | 67 | 52 | 29.77 | W | 12 | 0.00 |
| 9 | 06/16 | 16:00 | 86 | 66 | 53 | 29.77 | SW | 6 | 0.00 |
| 10 | 06/16 | 15:00 | 86 | 68 | 56 | 29.78 | SSW | 4 | 0.00 |
| 11 | 06/16 | 14:00 | 85 | 71 | 64 | 29.79 | SSW | 4 | 0.00 |
| 12 | 06/16 | 13:00 | 77 | 70 | 80 | 29.81 | SSW | 6 | 0.03 |
| 13 | 06/16 | 12:00 | 84 | 69 | 62 | 29.80 | S | 9 | 0.00 |
| 14 | 06/16 | 11:00 | 82 | 68 | 65 | 29.81 | SSW | 5 | 0.00 |
| 15 | 06/16 | 10:00 | 82 | 68 | 64 | 29.81 | S | 6 | 0.00 |
| 16 | 06/16 | 09:00 | 81 | 69 | 68 | 29.82 | SSW | 4 | 0.00 |
| 17 | 06/16 | 08:00 | 78 | 70 | 77 | 29.83 | SW | 1 | 0.00 |
| 18 | 06/16 | 07:00 | 76 | 69 | 80 | 29.83 | S | 3 | 0.00 |
| 19 | 06/16 | 06:00 | 75 | 68 | 81 | 29.83 | WSW | 0 | 0.00 |
| 20 | 06/16 | 05:00 | 75 | 69 | 82 | 29.83 | SW | 0 | 0.00 |
| 21 | 06/16 | 04:00 | 75 | 69 | 82 | 29.84 | W | 2 | 0.00 |
| 22 | 06/16 | 03:00 | 75 | 69 | 82 | 29.84 | S | 2 | 0.00 |
| 23 | 06/16 | 02:00 | 76 | 69 | 81 | 29.85 | WSW | 4 | 0.00 |
| 24 | 06/16 | 01:00 | 76 | 69 | 81 | 29.86 | SSW | 2 | 0.00 |